Main page
METAR-TAF:

METAR-TAF

Airports :

Teller Airport

Teller, Alaska, United States

latitude: 65-14-25N, longitude: 166-20-22W, elevation: 295 ft

Current weather observation

The report was made 50 minutes ago, at 14:56 UTC
Calm wind
Temperature -15°F
Humidity 83%
Pressure 30.32 in. Hg
Visibility: 10 miles
Broken clouds at a height of 9500 ft

METAR: PATE 291456Z AUTO 00000KT 10SM BKN095 M26/M28 A3032 RMK AO2 SLP283 T12561283 53003 FZRANO

Time: 06:46 (15:46 UTC)


TAF: missing

Weather observations and forecasts of more than 4000 airports (METAR and TAF reports).

The available stations are represented by yellow and red dots on the map.

Hover mouse over dot to see the name of the station.

Then click to see weather observations and forecasts.

To change the map : click on the green buttons with a black cross to zoom in, on the green button with a dash to zoom out, or on the green arrows for adjacent maps.


METAR-TAF: